Time;durP1;ratioP1;P1;durP2;ratioP2;P2;SDS_P1;SDS_P2;PMS_P1;PMS_P2;Temp;Humidity;BMP_temperature;BMP_pressure;BME280_temperature;BME280_humidity;BME280_pressure;Samples;Min_cycle;Max_cycle;Signal;HPM_P1;HPM_P2
2023/09/19 00:00:20;;;;;;;6.32;4.43;;;;;;;12.57;79.34;96864.59;5157766;27;20047;-66
2023/09/19 00:02:48;;;;;;;5.10;4.60;;;;;;;12.47;79.63;96864.13;5157699;27;20466;-64
2023/09/19 00:05:15;;;;;;;4.53;4.10;;;;;;;12.45;79.80;96860.69;5157542;27;20046;-69
2023/09/19 00:07:42;;;;;;;5.25;4.38;;;;;;;12.45;79.76;96859.84;5157866;27;20108;-63
2023/09/19 00:10:11;;;;;;;6.35;4.53;;;;;;;12.46;79.76;96859.78;5157560;27;20051;-67
2023/09/19 00:12:38;;;;;;;4.90;4.40;;;;;;;12.49;79.11;96856.16;5157420;27;20548;-63
2023/09/19 00:15:09;;;;;;;5.03;4.50;;;;;;;12.48;79.41;96857.09;5157460;27;20085;-64
2023/09/19 00:17:37;;;;;;;;;;;;;;;12.51;79.49;96856.97;5157887;27;20130;-62
2023/09/19 00:20:08;;;;;;;4.97;4.07;;;;;;;12.51;79.32;96852.59;5157465;27;19971;-65
2023/09/19 00:22:36;;;;;;;6.45;3.78;;;;;;;12.55;79.14;96862.97;5157551;27;20051;-67
2023/09/19 00:25:03;;;;;;;4.28;3.80;;;;;;;12.55;78.71;96863.78;5156672;27;20046;-65
2023/09/19 00:27:30;;;;;;;8.15;3.97;;;;;;;12.57;78.35;96864.59;5157344;27;20130;-67
2023/09/19 00:29:57;;;;;;;9.15;4.43;;;;;;;12.57;77.87;96864.59;5157362;27;20043;-67
2023/09/19 00:32:30;;;;;;;4.75;4.32;;;;;;;12.48;78.60;96860.56;5157368;27;20047;-63
2023/09/19 00:34:57;;;;;;;5.55;4.28;;;;;;;12.44;79.41;96859.00;5157144;27;20043;-62
2023/09/19 00:37:24;;;;;;;4.95;4.32;;;;;;;12.43;78.08;96859.91;5157152;27;20049;-64
2023/09/19 00:39:52;;;;;;;4.88;4.22;;;;;;;12.34;77.55;96858.50;5156977;27;20404;-66
2023/09/19 00:42:20;;;;;;;4.63;3.72;;;;;;;12.28;77.67;96852.66;5156886;27;20050;-65
2023/09/19 00:44:51;;;;;;;5.68;4.13;;;;;;;12.22;77.95;96854.59;5157033;27;20214;-66
2023/09/19 00:47:18;;;;;;;4.80;4.28;;;;;;;12.18;78.45;96855.63;5156772;27;20053;-69
2023/09/19 00:49:50;;;;;;;8.10;4.78;;;;;;;12.22;79.08;96851.13;5156855;27;20077;-66
2023/09/19 00:52:19;;;;;;;6.75;4.70;;;;;;;12.20;79.24;96845.09;5156882;27;20122;-66
2023/09/19 00:54:47;;;;;;;4.55;4.15;;;;;;;12.26;78.88;96847.47;5156859;27;20388;-67
2023/09/19 00:57:14;;;;;;;8.30;4.30;;;;;;;12.26;77.76;96855.34;5156852;27;20089;-69
2023/09/19 00:59:42;;;;;;;5.43;4.10;;;;;;;12.21;77.44;96847.66;5156716;27;20396;-66
2023/09/19 01:02:09;;;;;;;5.28;4.30;;;;;;;12.11;77.63;96847.19;5156537;27;20043;-62
2023/09/19 01:04:37;;;;;;;4.95;4.13;;;;;;;12.09;78.56;96850.75;5156478;27;20107;-65
2023/09/19 01:07:06;;;;;;;6.05;5.25;;;;;;;12.10;77.90;96849.84;5156468;27;20121;-63
2023/09/19 01:09:34;;;;;;;5.65;4.15;;;;;;;12.07;77.51;96849.97;5156436;27;20042;-69
2023/09/19 01:12:04;;;;;;;9.60;4.13;;;;;;;12.05;77.91;96850.00;5156414;27;20648;-68
2023/09/19 01:14:38;;;;;;;4.72;4.25;;;;;;;12.00;78.72;96847.56;5156417;27;20792;-69
2023/09/19 01:17:13;;;;;;;6.57;4.10;;;;;;;12.01;78.40;96846.63;5156407;27;20039;-67
2023/09/19 01:20:07;;;;;;;8.32;4.07;;;;;;;11.96;79.28;96843.34;5156261;27;20095;-64
2023/09/19 01:22:45;;;;;;;7.13;4.45;;;;;;;12.00;79.69;96844.94;5156171;27;20042;-68
2023/09/19 01:25:56;;;;;;;4.80;4.22;;;;;;;12.05;78.91;96849.13;5156088;27;20047;-65
2023/09/19 01:28:36;;;;;;;5.55;4.07;;;;;;;12.01;78.44;96837.91;5147094;27;20506;-68
2023/09/19 01:31:09;;;;;;;5.60;4.30;;;;;;;11.99;77.52;96837.13;5155941;27;20042;-68
2023/09/19 01:34:04;;;;;;;4.55;3.97;;;;;;;11.94;78.10;96834.69;5155830;27;20411;-65
2023/09/19 01:36:35;;;;;;;4.63;3.95;;;;;;;11.94;78.49;96839.06;5154921;27;20043;-67
2023/09/19 01:39:10;;;;;;;7.47;4.40;;;;;;;11.92;78.70;96835.66;5155854;27;20058;-66
2023/09/19 01:41:53;;;;;;;4.68;4.13;;;;;;;11.90;78.54;96838.34;5155783;27;20046;-67
2023/09/19 01:44:26;;;;;;;8.75;4.30;;;;;;;11.89;77.08;96834.00;5155832;27;20454;-64
2023/09/19 01:47:01;;;;;;;5.05;4.50;;;;;;;11.83;78.21;96836.88;5155475;27;20503;-69
2023/09/19 01:49:38;;;;;;;4.95;4.20;;;;;;;11.78;78.39;96829.19;5155677;27;20424;-66
2023/09/19 01:52:13;;;;;;;6.45;4.53;;;;;;;11.78;78.19;96828.31;5155674;27;20099;-68
2023/09/19 01:54:51;;;;;;;6.07;4.15;;;;;;;11.74;78.55;96820.56;5155522;27;20047;-67
2023/09/19 01:57:29;;;;;;;6.68;4.35;;;;;;;11.71;79.26;96828.53;5155453;27;20049;-66
2023/09/19 02:00:06;;;;;;;6.80;4.15;;;;;;;11.76;79.87;96825.75;5155534;27;20043;-64
2023/09/19 02:02:37;;;;;;;5.90;4.53;;;;;;;11.77;79.75;96826.63;5155484;27;20045;-65
2023/09/19 02:05:06;;;;;;;7.68;4.32;;;;;;;11.74;79.21;96823.19;5155232;27;20150;-63
2023/09/19 02:07:33;;;;;;;4.60;3.83;;;;;;;11.72;79.14;96826.78;5155261;27;20051;-65
2023/09/19 02:10:03;;;;;;;4.97;4.22;;;;;;;11.67;79.42;96821.72;5155373;27;20118;-67
2023/09/19 02:12:30;;;;;;;4.88;4.32;;;;;;;11.69;78.47;96819.91;5155207;27;20053;-69
2023/09/19 02:14:58;;;;;;;4.70;4.05;;;;;;;11.68;78.39;96825.22;5155380;27;20046;-68
2023/09/19 02:17:26;;;;;;;4.82;4.15;;;;;;;11.70;78.46;96824.22;5155290;27;20043;-65
2023/09/19 02:19:56;;;;;;;5.10;4.30;;;;;;;11.62;78.78;96814.03;5155068;27;20501;-63
2023/09/19 02:22:24;;;;;;;6.72;4.70;;;;;;;11.57;79.83;96823.84;5155187;27;20057;-67
2023/09/19 02:24:52;;;;;;;5.03;4.30;;;;;;;11.52;79.50;96815.28;5155024;27;20502;-66
2023/09/19 02:27:19;;;;;;;8.13;5.07;;;;;;;11.57;79.66;96815.13;5155039;27;20046;-67
2023/09/19 02:29:47;;;;;;;7.47;4.20;;;;;;;11.52;80.51;96815.28;5154899;27;20381;-65
2023/09/19 02:32:14;;;;;;;5.93;4.60;;;;;;;11.48;82.37;96814.56;5155017;27;20103;-67
2023/09/19 02:34:41;;;;;;;6.90;4.97;;;;;;;11.47;82.39;96814.63;5154927;27;20562;-65
2023/09/19 02:37:10;;;;;;;5.55;4.38;;;;;;;11.47;80.50;96809.38;5154911;27;20534;-63
2023/09/19 02:39:37;;;;;;;5.88;4.50;;;;;;;11.45;80.68;96819.91;5154814;27;20054;-62
2023/09/19 02:42:05;;;;;;;6.05;4.80;;;;;;;11.48;80.58;96809.34;5154811;27;20039;-65
2023/09/19 02:44:32;;;;;;;8.98;4.80;;;;;;;11.48;80.04;96808.47;5154635;27;20084;-65
2023/09/19 02:46:59;;;;;;;4.82;4.30;;;;;;;11.49;80.86;96802.31;5154614;27;20142;-64
2023/09/19 02:49:26;;;;;;;5.65;4.70;;;;;;;11.52;80.84;96804.81;5154594;27;20046;-65
2023/09/19 02:51:53;;;;;;;5.68;4.68;;;;;;;11.56;80.56;96802.94;5154759;27;20050;-68
2023/09/19 02:54:23;;;;;;;5.22;4.45;;;;;;;11.56;79.68;96801.16;5154810;27;20099;-64
2023/09/19 02:56:50;;;;;;;5.47;4.38;;;;;;;11.55;78.84;96801.22;5154742;27;20415;-62
2023/09/19 02:59:19;;;;;;;4.63;3.92;;;;;;;11.52;78.77;96796.09;5154549;27;20076;-65
2023/09/19 03:01:47;;;;;;;4.60;4.20;;;;;;;11.52;79.07;96799.56;5154612;27;20091;-67
2023/09/19 03:04:19;;;;;;;5.28;3.95;;;;;;;11.53;78.75;96793.41;5154610;27;20049;-67
2023/09/19 03:06:50;;;;;;;5.57;4.47;;;;;;;11.53;79.02;96795.19;5154590;27;20068;-63
2023/09/19 03:09:19;;;;;;;5.13;4.30;;;;;;;11.56;79.82;96798.53;5154502;27;20483;-64
2023/09/19 03:11:47;;;;;;;4.50;3.97;;;;;;;11.55;80.13;96794.22;5154536;27;20050;-67
2023/09/19 03:14:15;;;;;;;6.93;4.40;;;;;;;11.56;80.25;96789.84;5154554;27;20077;-67
2023/09/19 03:16:44;;;;;;;7.75;4.45;;;;;;;11.50;80.66;96769.97;5154444;27;20082;-63
2023/09/19 03:19:12;;;;;;;9.35;5.40;;;;;;;11.62;80.59;96785.22;5154537;27;20046;-70
2023/09/19 03:21:39;;;;;;;7.43;3.85;;;;;;;11.64;79.49;96782.53;5154464;27;20039;-66
2023/09/19 03:24:07;;;;;;;5.80;4.00;;;;;;;11.62;78.82;96777.34;5154482;27;20078;-66
2023/09/19 03:26:34;;;;;;;5.85;4.07;;;;;;;11.61;78.68;96787.88;5154547;27;20050;-64
2023/09/19 03:29:06;;;;;;;4.20;3.80;;;;;;;11.56;78.31;96785.44;5154530;27;20103;-68
2023/09/19 03:31:36;;;;;;;5.72;5.00;;;;;;;11.52;79.19;96788.22;5154494;27;20051;-66
2023/09/19 03:34:04;;;;;;;6.63;4.78;;;;;;;11.57;80.12;96791.53;5154380;27;20057;-68
2023/09/19 03:36:31;;;;;;;4.55;4.15;;;;;;;11.56;80.14;96790.69;5154134;27;20054;-66
2023/09/19 03:38:58;;;;;;;5.82;4.85;;;;;;;11.57;79.94;96797.66;5154346;27;20107;-68
2023/09/19 03:41:25;;;;;;;5.18;4.65;;;;;;;11.58;80.20;96799.34;5154142;27;20558;-64
2023/09/19 03:43:52;;;;;;;12.32;4.30;;;;;;;11.58;79.46;96801.09;5154216;27;20054;-69
2023/09/19 03:46:21;;;;;;;5.43;4.70;;;;;;;11.53;79.39;96805.69;5153922;27;20086;-69
2023/09/19 03:48:48;;;;;;;5.65;4.55;;;;;;;11.51;80.33;96797.88;5154122;27;20134;-69
2023/09/19 03:51:15;;;;;;;4.93;4.22;;;;;;;11.53;80.12;96808.28;5154226;27;20046;-63
2023/09/19 03:53:42;;;;;;;5.38;4.88;;;;;;;11.53;80.63;96805.69;5154216;27;20446;-65
2023/09/19 03:56:10;;;;;;;5.50;4.90;;;;;;;11.57;81.66;96802.88;5154074;27;20043;-66
2023/09/19 03:58:39;;;;;;;7.88;5.05;;;;;;;11.61;82.24;96806.22;5154158;27;20430;-68
2023/09/19 04:01:07;;;;;;;6.75;4.43;;;;;;;11.63;82.65;96799.19;5156977;27;20042;-67
2023/09/19 04:03:46;;;;;;;5.03;4.53;;;;;;;11.65;82.49;96805.19;5157823;27;20401;-69
2023/09/19 04:06:14;;;;;;;5.22;4.63;;;;;;;11.67;82.50;96810.38;5157650;27;20129;-65
2023/09/19 04:08:42;;;;;;;4.75;4.25;;;;;;;11.67;82.34;96808.63;5157812;27;20085;-65
2023/09/19 04:11:10;;;;;;;7.22;4.13;;;;;;;11.67;82.71;96811.25;5157771;27;20133;-66
2023/09/19 04:13:38;;;;;;;9.18;4.43;;;;;;;11.75;83.82;96817.03;5157667;27;20046;-67
2023/09/19 04:16:06;;;;;;;5.93;4.90;;;;;;;11.83;83.63;96818.53;5157552;27;20043;-63
2023/09/19 04:18:38;;;;;;;6.68;4.70;;;;;;;11.83;83.07;96819.34;5157494;27;20381;-69
2023/09/19 04:21:05;;;;;;;5.65;4.63;;;;;;;11.84;82.88;96812.38;5157453;27;20479;-66
2023/09/19 04:23:33;;;;;;;6.18;4.85;;;;;;;11.91;83.18;96815.59;5157369;27;20050;-69
2023/09/19 04:26:00;;;;;;;8.38;4.30;;;;;;;11.98;82.92;96812.66;5157182;27;20061;-68
2023/09/19 04:28:28;;;;;;;4.53;4.13;;;;;;;12.07;82.88;96811.47;5157298;27;20123;-67
2023/09/19 04:30:56;;;;;;;5.72;4.20;;;;;;;12.15;82.86;96811.19;5157352;27;20085;-66
2023/09/19 04:33:23;;;;;;;6.22;4.63;;;;;;;12.26;83.12;96816.00;5157147;27;20051;-68
2023/09/19 04:35:52;;;;;;;5.93;4.30;;;;;;;12.38;83.13;96814.66;5157137;27;20481;-67
2023/09/19 04:38:20;;;;;;;6.88;4.10;;;;;;;12.43;82.62;96810.03;5157096;27;20099;-67
2023/09/19 04:40:47;;;;;;;4.70;4.30;;;;;;;12.54;82.67;96809.63;5157157;27;20043;-69
2023/09/19 04:43:15;;;;;;;4.57;3.85;;;;;;;12.73;82.14;96812.31;5157034;27;20070;-66
2023/09/19 04:45:42;;;;;;;5.10;4.38;;;;;;;13.29;81.29;96809.06;5156938;27;20069;-64
2023/09/19 04:48:10;;;;;;;6.88;3.90;;;;;;;14.22;78.53;96805.72;5156731;27;20126;-67
2023/09/19 04:50:38;;;;;;;5.43;3.30;;;;;;;15.15;74.42;96818.69;5156767;27;20043;-65
2023/09/19 04:53:07;;;;;;;5.20;3.28;;;;;;;16.14;68.52;96820.44;5156748;27;20050;-64
2023/09/19 04:55:34;;;;;;;3.85;3.55;;;;;;;16.99;65.36;96827.09;5156652;27;20388;-68
2023/09/19 04:58:02;;;;;;;5.57;2.85;;;;;;;17.81;62.35;96818.63;5156603;27;20047;-68
2023/09/19 05:00:30;;;;;;;3.67;2.70;;;;;;;18.63;59.96;96829.41;5156637;27;20046;-68
2023/09/19 05:02:58;;;;;;;5.82;3.30;;;;;;;19.37;58.08;96828.00;5156573;27;20045;-66
2023/09/19 05:05:26;;;;;;;3.35;3.00;;;;;;;19.64;55.34;96821.72;5156339;27;20082;-71
2023/09/19 05:07:54;;;;;;;4.72;2.88;;;;;;;20.14;55.48;96826.22;5156492;27;20128;-68
2023/09/19 05:10:22;;;;;;;5.72;2.97;;;;;;;20.85;53.90;96828.09;5156289;27;20445;-67
2023/09/19 05:12:51;;;;;;;7.30;2.97;;;;;;;21.67;51.70;96829.00;5156425;27;20049;-68
2023/09/19 05:15:19;;;;;;;5.78;2.55;;;;;;;22.38;50.58;96829.66;5156357;27;20043;-66
2023/09/19 05:17:50;;;;;;;3.83;2.30;;;;;;;23.20;47.42;96831.84;5156289;27;20046;-67
2023/09/19 05:20:19;;;;;;;3.53;2.85;;;;;;;23.80;45.60;96827.66;5156257;27;20039;-63
2023/09/19 05:22:46;;;;;;;3.25;2.53;;;;;;;24.39;44.08;96832.34;5156162;27;20531;-65
2023/09/19 05:25:16;;;;;;;3.50;2.40;;;;;;;24.86;43.64;96823.63;5156257;27;20608;-64
2023/09/19 05:27:44;;;;;;;3.00;2.50;;;;;;;25.31;42.96;96827.56;5155875;27;20133;-66
2023/09/19 05:30:15;;;;;;;3.90;2.60;;;;;;;25.86;42.19;96819.78;5156126;27;20038;-67
2023/09/19 05:32:43;;;;;;;3.08;2.40;;;;;;;26.39;41.18;96820.06;5156022;27;20057;-64
2023/09/19 05:35:12;;;;;;;5.35;2.72;;;;;;;26.82;41.06;96827.50;5156082;27;20095;-69
2023/09/19 05:37:40;;;;;;;4.68;2.28;;;;;;;27.37;39.44;96822.91;5155860;27;20125;-65
2023/09/19 05:40:10;;;;;;;3.22;2.40;;;;;;;27.83;38.94;96820.00;5155850;27;20058;-66
2023/09/19 05:42:37;;;;;;;3.80;2.90;;;;;;;28.30;38.14;96820.53;5155848;27;20043;-67
2023/09/19 05:45:07;;;;;;;4.25;2.70;;;;;;;28.69;36.85;96819.09;5155950;27;20043;-64
2023/09/19 05:47:35;;;;;;;4.80;2.38;;;;;;;29.16;36.59;96827.50;5155334;27;20091;-63
2023/09/19 05:50:02;;;;;;;3.08;2.60;;;;;;;29.65;35.91;96817.69;5155741;27;20046;-64
2023/09/19 05:52:30;;;;;;;5.57;2.92;;;;;;;29.96;34.50;96819.59;5155614;27;20095;-64
2023/09/19 05:54:57;;;;;;;3.97;2.72;;;;;;;30.16;34.55;96824.59;5155689;27;20142;-65
2023/09/19 05:57:24;;;;;;;3.33;2.30;;;;;;;30.54;35.14;96823.00;5155563;27;20078;-67
2023/09/19 05:59:51;;;;;;;2.65;2.38;;;;;;;30.84;34.46;96823.19;5155474;27;20380;-68
2023/09/19 06:02:20;;;;;;;3.40;2.35;;;;;;;31.00;33.73;96814.13;5155602;27;20050;-66
2023/09/19 06:04:47;;;;;;;2.88;2.47;;;;;;;31.25;33.50;96816.59;5155506;27;20419;-64
2023/09/19 06:07:16;;;;;;;7.90;2.45;;;;;;;31.58;32.82;96819.00;5155350;27;20403;-66
2023/09/19 06:09:43;;;;;;;3.08;2.53;;;;;;;31.72;32.85;96811.06;5155341;27;20051;-65
2023/09/19 06:12:12;;;;;;;2.72;2.53;;;;;;;31.71;32.78;96807.53;5155328;27;20126;-64
2023/09/19 06:14:41;;;;;;;4.63;2.50;;;;;;;31.92;32.37;96816.75;5155300;27;20043;-63
2023/09/19 06:17:08;;;;;;;7.47;3.13;;;;;;;32.01;32.14;96812.09;5155216;27;20115;-67
2023/09/19 06:19:37;;;;;;;4.75;2.80;;;;;;;32.00;32.19;96819.34;5155191;27;20042;-66
2023/09/19 06:22:04;;;;;;;3.72;3.42;;;;;;;32.08;31.71;96813.00;5154716;27;20396;-64
2023/09/19 06:24:31;;;;;;;5.03;4.00;;;;;;;32.14;31.54;96812.25;5155017;27;20051;-66
2023/09/19 06:27:01;;;;;;;4.45;4.00;;;;;;;31.93;30.69;96812.19;5154921;27;20514;-68
2023/09/19 06:29:28;;;;;;;5.85;4.10;;;;;;;31.61;31.25;96815.91;5155013;27;20050;-66
2023/09/19 06:31:55;;;;;;;3.42;3.13;;;;;;;31.35;31.91;96822.59;5154864;27;20103;-66
2023/09/19 06:34:23;;;;;;;4.82;3.38;;;;;;;30.99;32.88;96805.19;5154841;27;20051;-67
2023/09/19 06:36:55;;;;;;;5.05;3.20;;;;;;;30.87;32.81;96814.72;5154787;27;20138;-66
2023/09/19 06:39:22;;;;;;;5.82;2.90;;;;;;;30.81;32.92;96812.75;5154915;27;20484;-65
2023/09/19 06:41:50;;;;;;;3.13;2.83;;;;;;;30.51;33.71;96821.53;5154899;27;20047;-66
2023/09/19 06:44:17;;;;;;;3.53;3.15;;;;;;;30.41;33.75;96813.66;5154901;27;20101;-64
2023/09/19 06:46:46;;;;;;;6.72;3.20;;;;;;;30.40;33.90;96822.78;5154488;27;20141;-64
2023/09/19 06:49:15;;;;;;;7.97;4.32;;;;;;;29.87;34.96;96815.25;5154938;27;20085;-67
2023/09/19 06:51:43;;;;;;;4.93;3.15;;;;;;;29.93;34.40;96816.41;5154798;27;20043;-64
2023/09/19 06:54:12;;;;;;;6.38;2.88;;;;;;;29.93;32.54;96819.09;5154802;27;20599;-65
2023/09/19 06:56:41;;;;;;;3.90;2.90;;;;;;;29.91;33.52;96813.88;5154788;27;20071;-64
2023/09/19 06:59:08;;;;;;;10.45;3.17;;;;;;;29.96;32.20;96816.06;5154849;27;20045;-66
2023/09/19 07:01:37;;;;;;;3.00;2.70;;;;;;;29.87;32.62;96813.41;5154655;27;20064;-64
2023/09/19 07:04:05;;;;;;;3.00;2.72;;;;;;;29.89;31.56;96810.53;5154624;27;20103;-66
2023/09/19 07:06:33;;;;;;;7.95;2.95;;;;;;;29.72;32.18;96807.91;5154460;27;20043;-64
2023/09/19 07:09:00;;;;;;;4.72;2.55;;;;;;;29.42;32.29;96798.69;5154498;27;20553;-65
2023/09/19 07:11:31;;;;;;;3.38;3.00;;;;;;;29.45;33.02;96803.72;5154699;27;20042;-64
2023/09/19 07:13:59;;;;;;;4.50;3.08;;;;;;;29.42;31.58;96810.31;5154611;27;20043;-67
2023/09/19 07:16:29;;;;;;;2.80;2.53;;;;;;;29.26;32.55;96795.03;5154469;27;20134;-66
2023/09/19 07:18:58;;;;;;;3.63;2.80;;;;;;;29.34;32.48;96800.38;5154683;27;20043;-66
2023/09/19 07:21:25;;;;;;;3.38;2.58;;;;;;;29.57;32.60;96799.69;5154506;27;20043;-64
2023/09/19 07:23:52;;;;;;;3.38;2.70;;;;;;;29.67;30.80;96804.06;5154429;27;20115;-64
2023/09/19 07:26:19;;;;;;;3.72;2.63;;;;;;;29.48;31.90;96789.94;5154342;27;20074;-65
2023/09/19 07:28:48;;;;;;;5.85;2.85;;;;;;;29.52;32.50;96802.03;5154402;27;20130;-66
2023/09/19 07:31:15;;;;;;;3.30;2.70;;;;;;;29.65;32.44;96793.44;5154367;27;20498;-66
2023/09/19 07:33:42;;;;;;;5.15;2.63;;;;;;;29.58;32.87;96787.91;5154589;27;20047;-65
2023/09/19 07:36:13;;;;;;;3.97;2.65;;;;;;;29.62;31.71;96796.50;5157531;27;20054;-64
2023/09/19 07:38:41;;;;;;;6.45;3.35;;;;;;;29.58;32.00;96787.06;5158223;27;20050;-65
2023/09/19 07:41:08;;;;;;;3.08;2.80;;;;;;;29.50;32.43;96788.72;5158208;27;20081;-63
2023/09/19 07:43:35;;;;;;;3.35;2.53;;;;;;;29.63;32.51;96787.38;5158062;27;20049;-66
2023/09/19 07:46:11;;;;;;;4.15;2.65;;;;;;;29.95;31.90;96780.16;5158002;27;20142;-63
2023/09/19 07:48:40;;;;;;;3.10;2.80;;;;;;;29.87;32.68;96777.53;5157925;27;20586;-63
2023/09/19 07:51:09;;;;;;;3.60;2.80;;;;;;;29.63;32.83;96782.84;5158083;27;20107;-63
2023/09/19 07:53:37;;;;;;;4.40;2.85;;;;;;;29.16;31.91;96780.91;5157959;27;20055;-65
2023/09/19 07:56:05;;;;;;;8.15;2.88;;;;;;;29.20;32.66;96775.00;5157883;27;20054;-65
2023/09/19 07:58:33;;;;;;;4.03;2.65;;;;;;;29.35;32.05;96769.75;5158036;27;20043;-65
2023/09/19 08:01:04;;;;;;;10.98;3.47;;;;;;;29.16;32.06;96776.34;5157971;27;20384;-62
2023/09/19 08:03:32;;;;;;;3.00;2.70;;;;;;;29.03;33.35;96766.13;5157810;27;20042;-65
2023/09/19 08:06:00;;;;;;;6.63;2.92;;;;;;;29.03;31.99;96768.81;5157835;27;20043;-63
2023/09/19 08:08:27;;;;;;;5.70;2.60;;;;;;;28.37;32.79;96758.84;5157697;27;20074;-67
2023/09/19 08:10:56;;;;;;;6.97;2.90;;;;;;;28.17;34.91;96753.75;5157711;27;20133;-64
2023/09/19 08:13:24;;;;;;;3.10;2.80;;;;;;;28.16;34.69;96761.97;5157536;27;20110;-64
2023/09/19 08:15:53;;;;;;;4.03;2.53;;;;;;;28.12;33.89;96754.22;5157536;27;20046;-62
2023/09/19 08:18:21;;;;;;;5.82;2.42;;;;;;;27.98;34.90;96749.50;5157586;27;20091;-63
2023/09/19 08:20:53;;;;;;;5.03;3.10;;;;;;;27.98;32.36;96755.72;5157595;27;20434;-63
2023/09/19 08:23:21;;;;;;;2.97;2.63;;;;;;;27.82;33.36;96753.00;5157389;27;20083;-65
2023/09/19 08:25:48;;;;;;;5.88;2.85;;;;;;;27.98;34.48;96750.34;5157437;27;20058;-62
2023/09/19 08:28:18;;;;;;;2.85;2.30;;;;;;;27.75;34.02;96745.56;5157334;27;20046;-65
2023/09/19 08:30:46;;;;;;;3.83;2.70;;;;;;;27.58;34.80;96744.66;5157253;27;20380;-63
2023/09/19 08:33:14;;;;;;;9.90;3.22;;;;;;;27.57;35.11;96751.00;5157346;27;20042;-63
2023/09/19 08:35:43;;;;;;;3.00;2.70;;;;;;;27.91;34.29;96743.97;5157156;27;20129;-63
2023/09/19 08:38:11;;;;;;;3.65;2.55;;;;;;;28.20;33.16;96741.84;5157002;27;20051;-65
2023/09/19 08:40:41;;;;;;;5.78;3.55;;;;;;;28.01;33.00;96730.38;5157102;27;20476;-63
2023/09/19 08:43:09;;;;;;;3.00;2.65;;;;;;;27.67;32.80;96724.06;5157048;27;20042;-66
2023/09/19 08:45:37;;;;;;;6.65;2.97;;;;;;;27.65;35.34;96725.22;5156446;27;20551;-65
2023/09/19 08:48:17;;;;;;;6.30;3.03;;;;;;;27.82;35.05;96726.13;5156675;27;20430;-66
2023/09/19 08:50:50;;;;;;;4.63;2.20;;;;;;;28.06;33.46;96724.50;5156803;27;20544;-67
2023/09/19 08:53:27;;;;;;;3.30;2.70;;;;;;;28.19;33.55;96719.50;5156943;27;20129;-64
2023/09/19 08:55:56;;;;;;;4.95;2.40;;;;;;;28.50;33.33;96724.25;5156828;27;20046;-64
2023/09/19 08:58:29;;;;;;;3.17;2.70;;;;;;;28.50;31.35;96723.38;5156691;27;20039;-67
2023/09/19 09:01:01;;;;;;;4.65;2.70;;;;;;;28.17;30.98;96715.28;5156799;27;20117;-62
2023/09/19 09:03:33;;;;;;;2.60;2.40;;;;;;;27.53;31.96;96712.06;5156629;27;20075;-65
2023/09/19 09:06:01;;;;;;;5.90;2.22;;;;;;;27.04;33.45;96707.28;5156580;27;20046;-64
2023/09/19 09:08:32;;;;;;;3.20;2.17;;;;;;;26.88;33.29;96698.13;5156266;27;20046;-64
2023/09/19 09:11:00;;;;;;;4.72;2.50;;;;;;;26.90;33.10;96697.97;5156491;27;20046;-62
2023/09/19 09:13:28;;;;;;;5.88;2.70;;;;;;;27.16;33.74;96705.16;5156384;27;20078;-66
2023/09/19 09:15:55;;;;;;;2.70;2.50;;;;;;;27.31;33.04;96706.25;5156296;27;20043;-63
2023/09/19 09:18:22;;;;;;;3.13;2.63;;;;;;;27.47;32.35;96691.22;5156188;27;20050;-63
2023/09/19 09:20:49;;;;;;;3.22;2.50;;;;;;;27.81;32.03;96690.34;5156477;27;20051;-66
2023/09/19 09:23:16;;;;;;;3.05;2.75;;;;;;;27.92;31.53;96691.88;5156325;27;20046;-64
2023/09/19 09:25:59;;;;;;;3.88;2.47;;;;;;;27.87;32.16;96683.47;5156135;27;20051;-65
2023/09/19 09:28:27;;;;;;;2.70;2.13;;;;;;;27.98;31.90;96685.84;5156087;27;20050;-65
2023/09/19 09:30:55;;;;;;;3.97;2.80;;;;;;;28.15;32.42;96685.03;5156035;27;20039;-66
2023/09/19 09:33:23;;;;;;;2.63;2.30;;;;;;;28.26;32.10;96682.00;5156049;27;20051;-65
2023/09/19 09:35:56;;;;;;;3.85;2.53;;;;;;;28.28;31.98;96674.63;5156280;27;20042;-61
2023/09/19 09:38:27;;;;;;;4.78;2.60;;;;;;;28.27;32.05;96681.03;5155855;27;20050;-64
2023/09/19 09:41:01;;;;;;;3.72;2.70;;;;;;;28.21;32.56;96676.31;5155771;27;20133;-63
2023/09/19 09:43:30;;;;;;;7.88;2.42;;;;;;;28.02;31.62;96678.28;5155836;27;20043;-66
2023/09/19 09:51:48;;;;;;;3.15;2.67;;;;;;;28.08;31.09;96666.88;5155904;27;20049;-65
2023/09/19 09:54:17;;;;;;;4.65;2.45;;;;;;;27.58;30.91;96663.22;5155717;27;20112;-65
2023/09/19 09:56:58;;;;;;;5.35;2.80;;;;;;;27.48;32.23;96658.00;5155424;27;20495;-65
2023/09/19 10:00:09;;;;;;;3.22;2.30;;;;;;;27.55;32.52;96650.97;5155322;27;20058;-66
2023/09/19 10:02:39;;;;;;;3.60;2.80;;;;;;;27.50;33.15;96659.50;5071584;28;20098;-63
2023/09/19 10:05:20;;;;;;;5.55;2.60;;;;;;;27.39;33.40;96657.09;5071489;28;20164;-68
2023/09/19 10:07:49;;;;;;;2.33;2.10;;;;;;;27.23;31.87;96652.53;5124900;27;20480;-63
2023/09/19 10:10:38;;;;;;;6.85;2.53;;;;;;;27.09;32.63;96646.75;5155460;27;20043;-65
2023/09/19 10:13:12;;;;;;;3.08;2.28;;;;;;;26.85;33.87;96653.66;5155379;27;20141;-68
2023/09/19 10:15:40;;;;;;;6.55;2.75;;;;;;;27.03;32.91;96650.06;5155448;27;20050;-64
2023/09/19 10:18:08;;;;;;;3.63;2.38;;;;;;;26.68;32.64;96644.69;5155395;27;20046;-63
2023/09/19 10:20:38;;;;;;;5.07;2.83;;;;;;;26.75;34.30;96637.69;5155195;27;20556;-64
2023/09/19 10:23:12;;;;;;;6.00;2.60;;;;;;;26.84;33.47;96646.59;5155479;27;20575;-63
2023/09/19 10:25:41;;;;;;;4.32;3.00;;;;;;;27.02;34.63;96642.22;5155256;27;20658;-63
2023/09/19 10:28:11;;;;;;;5.05;2.80;;;;;;;27.03;33.68;96638.53;5155071;27;20046;-67
2023/09/19 10:30:41;;;;;;;;;;;;;;;26.74;33.23;96648.56;5155481;27;20129;-66
2023/09/19 10:33:10;;;;;;;7.07;2.88;;;;;;;26.49;33.28;96638.50;5155034;27;20388;-67
2023/09/19 10:35:40;;;;;;;3.97;2.42;;;;;;;26.53;34.61;96638.19;5155023;27;20085;-67
2023/09/19 10:38:08;;;;;;;3.42;2.40;;;;;;;26.53;34.68;96633.69;5154994;27;20130;-66
2023/09/19 10:40:40;;;;;;;3.30;2.45;;;;;;;26.68;34.39;96633.09;5154875;27;20042;-66
2023/09/19 10:43:12;;;;;;;6.97;2.85;;;;;;;26.74;34.47;96627.97;5154760;27;20103;-67
2023/09/19 10:45:41;;;;;;;4.40;2.80;;;;;;;26.86;33.94;96625.00;5154870;27;20043;-65
2023/09/19 10:48:09;;;;;;;5.07;2.75;;;;;;;26.76;34.21;96627.78;5154573;27;20057;-63
2023/09/19 10:50:45;;;;;;;5.47;2.20;;;;;;;26.90;33.36;96625.53;5154702;27;20047;-64
2023/09/19 10:53:15;;;;;;;4.50;2.75;;;;;;;26.87;33.82;96613.25;5154844;27;20046;-66
2023/09/19 10:55:51;;;;;;;3.28;2.97;;;;;;;26.98;33.56;96612.16;5154658;27;20488;-63
2023/09/19 10:58:28;;;;;;;6.35;2.03;;;;;;;27.07;33.09;96605.00;5154842;27;20441;-66
2023/09/19 11:01:01;;;;;;;2.83;2.53;;;;;;;27.05;34.23;96609.66;5154744;27;20078;-64
2023/09/19 11:03:31;;;;;;;4.63;2.60;;;;;;;26.98;33.54;96602.28;5154718;27;20464;-65
2023/09/19 11:06:04;;;;;;;3.38;3.08;;;;;;;26.87;32.45;96608.72;5154649;27;20081;-64
2023/09/19 11:08:33;;;;;;;5.82;2.60;;;;;;;26.61;33.28;96604.22;5155011;27;20125;-61
2023/09/19 11:11:03;;;;;;;7.13;2.63;;;;;;;26.69;34.58;96595.38;5158771;27;20046;-66
2023/09/19 11:13:34;;;;;;;3.00;2.65;;;;;;;26.79;33.47;96597.94;5158857;27;20480;-64
2023/09/19 11:16:05;;;;;;;4.20;2.80;;;;;;;26.70;34.68;96585.50;5158770;27;20092;-62
2023/09/19 11:18:57;;;;;;;2.45;2.25;;;;;;;26.80;34.31;96591.59;5158650;27;20054;-64
2023/09/19 11:21:58;;;;;;;3.55;2.40;;;;;;;26.82;33.75;96586.06;5158773;27;20069;-65
2023/09/19 11:24:31;;;;;;;3.53;2.60;;;;;;;26.87;34.99;96589.09;5158695;27;20440;-61
2023/09/19 11:27:17;;;;;;;2.90;2.60;;;;;;;26.96;34.05;96584.59;5158519;27;20042;-64
2023/09/19 11:29:47;;;;;;;8.70;2.60;;;;;;;26.99;32.60;96584.31;5158513;27;20050;-65
2023/09/19 11:32:15;;;;;;;6.60;2.30;;;;;;;27.04;33.52;96567.75;5158456;27;20043;-65
2023/09/19 11:34:48;;;;;;;5.68;2.38;;;;;;;27.02;33.91;96573.28;5158469;27;20043;-64
2023/09/19 11:38:10;;;;;;;4.53;2.22;;;;;;;27.04;33.67;96573.97;5158332;27;20042;-61
2023/09/19 11:40:37;;;;;;;2.35;2.15;;;;;;;27.03;31.46;96566.06;5158215;27;20488;-66
2023/09/19 11:43:30;;;;;;;3.10;2.58;;;;;;;26.96;32.12;96557.78;5158180;27;20516;-65
2023/09/19 11:46:11;;;;;;;4.90;2.50;;;;;;;26.99;32.50;96558.34;5158293;27;20051;-66
2023/09/19 11:48:41;;;;;;;3.28;2.45;;;;;;;27.12;33.79;96549.81;5157932;27;20050;-62
2023/09/19 11:51:27;;;;;;;9.10;2.57;;;;;;;27.42;32.51;96551.25;5158156;27;20385;-61
2023/09/19 11:53:56;;;;;;;4.88;2.63;;;;;;;27.51;31.56;96547.53;5157942;27;20468;-65